Time;durP1;ratioP1;P1;durP2;ratioP2;P2;SDS_P1;SDS_P2;PMS_P1;PMS_P2;Temp;Humidity;BMP_temperature;BMP_pressure;BME280_temperature;BME280_humidity;BME280_pressure;Samples;Min_cycle;Max_cycle;Signal;HPM_P1;HPM_P2
2021/07/18 00:00:54;;;;;;;28.42;21.92;;;;;;;;;;4963984;28;20045;-49
2021/07/18 00:03:21;;;;;;;25.13;20.92;;;;;;;;;;4974397;28;20046;-50
2021/07/18 00:05:48;;;;;;;27.50;21.05;;;;;;;;;;4971801;28;20046;-48
2021/07/18 00:08:15;;;;;;;27.50;21.58;;;;;;;;;;4966212;28;20131;-49
2021/07/18 00:10:41;;;;;;;28.00;22.67;;;;;;;;;;4964648;28;20053;-51
2021/07/18 00:13:08;;;;;;;25.75;20.45;;;;;;;;;;4974288;28;20057;-51
2021/07/18 00:15:35;;;;;;;24.00;21.20;;;;;;;;;;4973005;28;20185;-50
2021/07/18 00:18:02;;;;;;;24.60;20.85;;;;;;;;;;4967618;28;20050;-48
2021/07/18 00:20:28;;;;;;;24.17;20.35;;;;;;;;;;4969218;28;20401;-47
2021/07/18 00:22:55;;;;;;;25.48;20.38;;;;;;;;;;4973964;28;20409;-49
2021/07/18 00:25:22;;;;;;;26.10;20.65;;;;;;;;;;4970381;28;20041;-49
2021/07/18 00:27:49;;;;;;;25.92;21.92;;;;;;;;;;4974048;28;20051;-47
2021/07/18 00:30:15;;;;;;;21.70;18.52;;;;;;;;;;4963098;28;20066;-52
2021/07/18 00:32:43;;;;;;;25.65;19.15;;;;;;;;;;4971470;28;20592;-49
2021/07/18 00:35:10;;;;;;;24.67;19.08;;;;;;;;;;4973424;28;20073;-51
2021/07/18 00:37:37;;;;;;;23.60;19.98;;;;;;;;;;4967405;28;20129;-52
2021/07/18 00:40:04;;;;;;;23.63;19.10;;;;;;;;;;4972429;28;20042;-50
2021/07/18 00:42:31;;;;;;;24.73;19.77;;;;;;;;;;4972959;28;20153;-47
2021/07/18 00:44:58;;;;;;;25.83;21.20;;;;;;;;;;4969866;28;20058;-52
2021/07/18 00:47:25;;;;;;;24.83;19.95;;;;;;;;;;4971914;28;20039;-49
2021/07/18 00:49:52;;;;;;;25.80;18.85;;;;;;;;;;4972057;28;20059;-51
2021/07/18 00:52:19;;;;;;;25.20;18.10;;;;;;;;;;4973518;28;20058;-48
2021/07/18 00:54:46;;;;;;;24.15;18.23;;;;;;;;;;4968230;28;20053;-47
2021/07/18 00:57:13;;;;;;;24.60;18.77;;;;;;;;;;4972494;28;20070;-48
2021/07/18 00:59:40;;;;;;;25.45;18.98;;;;;;;;;;4968350;28;20501;-48
2021/07/18 01:02:07;;;;;;;24.45;19.20;;;;;;;;;;4971713;28;20474;-48
2021/07/18 01:04:34;;;;;;;23.38;17.63;;;;;;;;;;4970149;28;20137;-47
2021/07/18 01:07:02;;;;;;;22.30;17.23;;;;;;;;;;4967927;28;20047;-46
2021/07/18 01:09:28;;;;;;;20.10;16.42;;;;;;;;;;4960567;28;20038;-48
2021/07/18 01:11:55;;;;;;;21.08;16.60;;;;;;;;;;4972202;28;20137;-49
2021/07/18 01:14:23;;;;;;;19.17;16.27;;;;;;;;;;4972483;28;20057;-47
2021/07/18 01:16:49;;;;;;;18.95;15.80;;;;;;;;;;4963508;28;20102;-51
2021/07/18 01:19:19;;;;;;;19.23;15.88;;;;;;;;;;4971409;28;20485;-51
2021/07/18 01:21:52;;;;;;;19.48;15.95;;;;;;;;;;4969638;28;20473;-51
2021/07/18 01:24:18;;;;;;;19.00;15.45;;;;;;;;;;4970128;28;20126;-48
2021/07/18 01:26:45;;;;;;;19.63;16.27;;;;;;;;;;4971791;28;20125;-48
2021/07/18 01:29:12;;;;;;;21.27;15.35;;;;;;;;;;4965747;28;20046;-49
2021/07/18 01:31:39;;;;;;;23.08;15.93;;;;;;;;;;4960910;28;20110;-48
2021/07/18 01:34:06;;;;;;;16.65;13.98;;;;;;;;;;4971797;28;20066;-51
2021/07/18 01:36:33;;;;;;;17.08;14.45;;;;;;;;;;4960913;28;20042;-48
2021/07/18 01:38:59;;;;;;;18.75;14.60;;;;;;;;;;4964301;28;20047;-49
2021/07/18 01:41:26;;;;;;;19.90;14.68;;;;;;;;;;4960240;28;20051;-48
2021/07/18 01:43:53;;;;;;;18.85;14.20;;;;;;;;;;4972383;28;20070;-47
2021/07/18 01:46:19;;;;;;;17.42;12.95;;;;;;;;;;4969206;28;20043;-46
2021/07/18 01:48:50;;;;;;;17.27;14.88;;;;;;;;;;4967073;28;20043;-49
2021/07/18 01:51:21;;;;;;;20.52;14.68;;;;;;;;;;4968456;28;20049;-50
2021/07/18 01:53:51;;;;;;;19.67;14.05;;;;;;;;;;4971788;28;20039;-49
2021/07/18 01:56:19;;;;;;;20.85;13.77;;;;;;;;;;4968636;28;20035;-47
2021/07/18 01:58:47;;;;;;;17.73;13.38;;;;;;;;;;4956244;28;20035;-50
2021/07/18 02:01:15;;;;;;;16.73;12.93;;;;;;;;;;4964254;28;20034;-49
2021/07/18 02:03:42;;;;;;;17.30;13.40;;;;;;;;;;4970538;28;20050;-48
2021/07/18 02:06:09;;;;;;;15.55;11.80;;;;;;;;;;4971462;28;20073;-50
2021/07/18 02:08:36;;;;;;;18.65;12.48;;;;;;;;;;4959107;28;20492;-50
2021/07/18 02:11:03;;;;;;;18.30;12.23;;;;;;;;;;4972250;28;20043;-47
2021/07/18 02:13:30;;;;;;;18.13;12.07;;;;;;;;;;4972139;28;20049;-48
2021/07/18 02:15:58;;;;;;;15.35;11.13;;;;;;;;;;4971337;28;20043;-50
2021/07/18 02:18:25;;;;;;;17.90;12.15;;;;;;;;;;4965120;28;20054;-47
2021/07/18 02:20:55;;;;;;;18.98;12.02;;;;;;;;;;4970811;28;20133;-49
2021/07/18 02:23:22;;;;;;;16.95;11.40;;;;;;;;;;4971368;28;20046;-48
2021/07/18 02:25:49;;;;;;;17.92;11.63;;;;;;;;;;4969984;28;20043;-46
2021/07/18 02:28:17;;;;;;;14.48;11.50;;;;;;;;;;4970563;28;20374;-48
2021/07/18 02:30:44;;;;;;;17.08;11.30;;;;;;;;;;4960996;28;20448;-46
2021/07/18 02:33:10;;;;;;;16.90;10.88;;;;;;;;;;4970024;28;20078;-47
2021/07/18 02:35:37;;;;;;;16.90;10.73;;;;;;;;;;4970880;28;20488;-51
2021/07/18 02:38:04;;;;;;;16.45;10.60;;;;;;;;;;4968577;28;20610;-49
2021/07/18 02:40:31;;;;;;;18.05;10.50;;;;;;;;;;4969530;28;20042;-48
2021/07/18 02:42:58;;;;;;;13.20;10.18;;;;;;;;;;4971034;28;20576;-47
2021/07/18 02:45:24;;;;;;;13.18;9.90;;;;;;;;;;4969887;28;20035;-50
2021/07/18 02:47:52;;;;;;;12.82;10.43;;;;;;;;;;4970033;28;20034;-51
2021/07/18 02:50:20;;;;;;;14.60;9.20;;;;;;;;;;4971034;28;20480;-50
2021/07/18 02:52:47;;;;;;;12.40;8.95;;;;;;;;;;4970408;28;20118;-49
2021/07/18 02:55:14;;;;;;;13.82;9.02;;;;;;;;;;4958337;28;20057;-47
2021/07/18 02:57:41;;;;;;;11.45;8.73;;;;;;;;;;4970290;28;20145;-47
2021/07/18 03:00:09;;;;;;;16.02;8.98;;;;;;;;;;4967912;28;20043;-46
2021/07/18 03:02:36;;;;;;;12.23;9.10;;;;;;;;;;4973718;28;20050;-46
2021/07/18 03:05:04;;;;;;;13.20;8.32;;;;;;;;;;4975155;28;20158;-48
2021/07/18 03:07:31;;;;;;;15.27;8.52;;;;;;;;;;4969836;28;20067;-46
2021/07/18 03:09:58;;;;;;;11.18;7.75;;;;;;;;;;4974327;28;20047;-46
2021/07/18 03:12:25;;;;;;;15.05;8.13;;;;;;;;;;4973011;28;20058;-47
2021/07/18 03:14:51;;;;;;;14.13;8.45;;;;;;;;;;4972845;28;20078;-47
2021/07/18 03:17:18;;;;;;;11.65;7.57;;;;;;;;;;4969330;28;20119;-49
2021/07/18 03:19:45;;;;;;;11.70;7.55;;;;;;;;;;4967676;28;20268;-48
2021/07/18 03:22:12;;;;;;;10.98;7.38;;;;;;;;;;4972970;28;20134;-47
2021/07/18 03:24:38;;;;;;;12.20;7.72;;;;;;;;;;4972401;28;20042;-49
2021/07/18 03:27:05;;;;;;;15.00;7.72;;;;;;;;;;4971844;28;20130;-47
2021/07/18 03:29:32;;;;;;;11.68;7.55;;;;;;;;;;4967661;28;20126;-46
2021/07/18 03:31:59;;;;;;;13.10;7.55;;;;;;;;;;4955252;28;20102;-48
2021/07/18 03:34:26;;;;;;;14.25;7.85;;;;;;;;;;4966597;28;20042;-47
2021/07/18 03:36:53;;;;;;;12.50;6.93;;;;;;;;;;4974856;28;20051;-49
2021/07/18 03:39:19;;;;;;;9.65;7.30;;;;;;;;;;4972804;28;20137;-49
2021/07/18 03:41:46;;;;;;;11.30;6.32;;;;;;;;;;4966706;28;20126;-46
2021/07/18 03:44:13;;;;;;;9.38;6.07;;;;;;;;;;4957552;28;20125;-48
2021/07/18 03:46:40;;;;;;;11.52;8.18;;;;;;;;;;4973967;28;20444;-49
2021/07/18 03:49:07;;;;;;;11.15;7.28;;;;;;;;;;4973193;28;20039;-52
2021/07/18 03:51:33;;;;;;;12.82;7.30;;;;;;;;;;4963835;28;20483;-49
2021/07/18 03:54:00;;;;;;;13.38;7.13;;;;;;;;;;4973528;28;20046;-48
2021/07/18 03:56:27;;;;;;;12.38;6.60;;;;;;;;;;4974537;28;20046;-48
2021/07/18 03:58:54;;;;;;;12.00;6.40;;;;;;;;;;4966668;28;20141;-50
2021/07/18 04:01:21;;;;;;;10.60;7.40;;;;;;;;;;4969844;28;20046;-52
2021/07/18 04:03:47;;;;;;;13.18;7.18;;;;;;;;;;4973057;28;20042;-50
2021/07/18 04:06:15;;;;;;;12.00;7.05;;;;;;;;;;4973826;28;20125;-51
2021/07/18 04:08:42;;;;;;;10.00;6.40;;;;;;;;;;4970961;28;20173;-48
2021/07/18 04:11:09;;;;;;;9.32;6.43;;;;;;;;;;4973081;28;20062;-49
2021/07/18 04:13:36;;;;;;;12.77;6.63;;;;;;;;;;4955368;28;20113;-47
2021/07/18 04:16:03;;;;;;;12.65;6.45;;;;;;;;;;4974279;28;20050;-48
2021/07/18 04:18:31;;;;;;;9.88;5.68;;;;;;;;;;4972476;28;20137;-48
2021/07/18 04:20:58;;;;;;;15.02;6.38;;;;;;;;;;4974199;28;20134;-51
2021/07/18 04:23:27;;;;;;;12.40;5.93;;;;;;;;;;4970748;28;20480;-51
2021/07/18 04:25:53;;;;;;;11.23;6.25;;;;;;;;;;4973884;28;20043;-46
2021/07/18 04:28:20;;;;;;;10.10;6.28;;;;;;;;;;4971527;28;20848;-48
2021/07/18 04:30:47;;;;;;;10.52;5.85;;;;;;;;;;4955342;28;20487;-48
2021/07/18 04:33:18;;;;;;;8.85;5.80;;;;;;;;;;4971051;28;20047;-48
2021/07/18 04:35:45;;;;;;;12.15;6.47;;;;;;;;;;4972992;28;20154;-49
2021/07/18 04:38:11;;;;;;;9.85;5.75;;;;;;;;;;4968679;28;20049;-48
2021/07/18 04:40:38;;;;;;;14.38;6.07;;;;;;;;;;4973234;28;20043;-47
2021/07/18 04:43:05;;;;;;;12.65;5.90;;;;;;;;;;4972567;28;20035;-49
2021/07/18 04:45:32;;;;;;;8.88;5.05;;;;;;;;;;4973837;28;20122;-49
2021/07/18 04:47:58;;;;;;;12.30;6.15;;;;;;;;;;4962008;28;20047;-49
2021/07/18 04:50:26;;;;;;;9.27;5.82;;;;;;;;;;4971840;28;20046;-48
2021/07/18 04:52:53;;;;;;;9.05;5.63;;;;;;;;;;4972587;28;20061;-48
2021/07/18 04:55:20;;;;;;;9.35;5.55;;;;;;;;;;4972328;28;20162;-51
2021/07/18 04:57:47;;;;;;;12.05;5.50;;;;;;;;;;4972611;28;20053;-48
2021/07/18 05:00:14;;;;;;;9.68;4.90;;;;;;;;;;4965710;28;20130;-48
2021/07/18 05:02:41;;;;;;;7.30;4.88;;;;;;;;;;4971846;28;20126;-49
2021/07/18 05:05:13;;;;;;;11.27;5.20;;;;;;;;;;4971620;28;20381;-51
2021/07/18 05:08:01;;;;;;;8.73;4.78;;;;;;;;;;4966564;28;20071;-48
2021/07/18 05:10:29;;;;;;;7.68;4.68;;;;;;;;;;4969199;28;20063;-46
2021/07/18 05:12:56;;;;;;;9.73;5.25;;;;;;;;;;4973072;28;20134;-48
2021/07/18 05:15:24;;;;;;;8.30;4.75;;;;;;;;;;4970243;28;20473;-49
2021/07/18 05:17:51;;;;;;;10.40;4.80;;;;;;;;;;4957371;28;20059;-49
2021/07/18 05:20:21;;;;;;;9.70;5.10;;;;;;;;;;4972327;28;20413;-49
2021/07/18 05:22:48;;;;;;;9.70;5.03;;;;;;;;;;4971926;28;20060;-48
2021/07/18 05:25:14;;;;;;;8.18;4.85;;;;;;;;;;4968671;28;20067;-47
2021/07/18 05:27:41;;;;;;;7.15;5.05;;;;;;;;;;4958740;28;20055;-51
2021/07/18 05:30:09;;;;;;;9.68;5.03;;;;;;;;;;4961951;28;20071;-46
2021/07/18 05:32:36;;;;;;;8.55;5.03;;;;;;;;;;4969568;28;20403;-48
2021/07/18 05:35:04;;;;;;;8.15;5.13;;;;;;;;;;4970944;28;20066;-47
2021/07/18 05:37:31;;;;;;;10.35;5.40;;;;;;;;;;4971199;28;20059;-49
2021/07/18 05:39:58;;;;;;;9.23;4.82;;;;;;;;;;4960583;28;20133;-49
2021/07/18 05:42:25;;;;;;;8.88;5.05;;;;;;;;;;4971734;28;20433;-46
2021/07/18 05:44:52;;;;;;;8.88;4.47;;;;;;;;;;4972466;28;20520;-51
2021/07/18 05:47:19;;;;;;;7.65;4.55;;;;;;;;;;4966087;28;20134;-46
2021/07/18 05:49:46;;;;;;;11.63;4.90;;;;;;;;;;4972204;28;20058;-47
2021/07/18 05:52:12;;;;;;;7.70;4.63;;;;;;;;;;4971165;28;20043;-49
2021/07/18 05:54:39;;;;;;;9.50;4.65;;;;;;;;;;4972325;28;20043;-46
2021/07/18 05:57:06;;;;;;;8.70;5.15;;;;;;;;;;4965367;28;20125;-45
2021/07/18 05:59:32;;;;;;;9.05;5.30;;;;;;;;;;4977755;23;20074;-50
2021/07/18 06:01:59;;;;;;;9.15;4.93;;;;;;;;;;4969943;28;20047;-45
2021/07/18 06:04:27;;;;;;;11.75;5.30;;;;;;;;;;4971409;28;20081;-47
2021/07/18 06:06:54;;;;;;;10.07;5.65;;;;;;;;;;4973872;28;20043;-47
2021/07/18 06:09:21;;;;;;;12.85;5.50;;;;;;;;;;4965350;28;20142;-47
2021/07/18 06:11:48;;;;;;;12.23;5.18;;;;;;;;;;4963557;28;20492;-46
2021/07/18 06:14:14;;;;;;;8.75;5.22;;;;;;;;;;4971685;28;20050;-46
2021/07/18 06:16:41;;;;;;;6.88;4.75;;;;;;;;;;4969594;28;20150;-50
2021/07/18 06:19:08;;;;;;;10.13;5.00;;;;;;;;;;4952840;28;20086;-46
2021/07/18 06:21:35;;;;;;;11.60;5.50;;;;;;;;;;4961481;28;20134;-45
2021/07/18 06:24:02;;;;;;;7.53;4.60;;;;;;;;;;4972596;28;20050;-46
2021/07/18 06:26:29;;;;;;;10.50;4.78;;;;;;;;;;4962410;28;20050;-46
2021/07/18 06:28:55;;;;;;;6.63;4.57;;;;;;;;;;4968424;28;20074;-48
2021/07/18 06:31:23;;;;;;;8.65;4.75;;;;;;;;;;4958865;28;20043;-47
2021/07/18 06:33:50;;;;;;;7.93;4.63;;;;;;;;;;4972622;28;20101;-48
2021/07/18 06:36:17;;;;;;;7.28;4.57;;;;;;;;;;4973747;28;20122;-47
2021/07/18 06:38:44;;;;;;;8.65;4.63;;;;;;;;;;4960343;28;20473;-50
2021/07/18 06:41:10;;;;;;;8.07;4.32;;;;;;;;;;4960993;28;20035;-44
2021/07/18 06:43:37;;;;;;;8.30;4.68;;;;;;;;;;4975436;28;20067;-48
2021/07/18 06:46:24;;;;;;;7.25;4.30;;;;;;;;;;4964985;28;20377;-49
2021/07/18 06:48:51;;;;;;;9.10;4.95;;;;;;;;;;4975592;28;20049;-47
2021/07/18 06:51:18;;;;;;;11.48;3.97;;;;;;;;;;4975486;28;20130;-47
2021/07/18 06:53:45;;;;;;;11.55;5.13;;;;;;;;;;4967839;28;20053;-48
2021/07/18 06:56:26;;;;;;;7.72;4.50;;;;;;;;;;4975591;28;20054;-45
2021/07/18 06:58:52;;;;;;;7.55;4.68;;;;;;;;;;4972040;28;20146;-48
2021/07/18 07:01:19;;;;;;;9.25;4.25;;;;;;;;;;4958589;28;20049;-48
2021/07/18 07:03:46;;;;;;;7.30;4.50;;;;;;;;;;4974190;28;20070;-46
2021/07/18 07:06:13;;;;;;;7.20;4.47;;;;;;;;;;4973909;28;20051;-49
2021/07/18 07:08:40;;;;;;;8.40;4.20;;;;;;;;;;4963046;28;20133;-50
2021/07/18 07:11:06;;;;;;;10.43;4.40;;;;;;;;;;4966797;28;20094;-48
2021/07/18 07:13:33;;;;;;;6.82;4.45;;;;;;;;;;4974750;28;20416;-47
2021/07/18 07:16:00;;;;;;;8.00;4.40;;;;;;;;;;4973749;28;20440;-49
2021/07/18 07:18:27;;;;;;;6.97;3.95;;;;;;;;;;4961917;28;20043;-50
2021/07/18 07:20:54;;;;;;;13.73;4.63;;;;;;;;;;4975806;28;20133;-50
2021/07/18 07:23:21;;;;;;;8.48;4.53;;;;;;;;;;4974538;28;20122;-47
2021/07/18 07:25:47;;;;;;;8.63;4.38;;;;;;;;;;4973981;28;20121;-51
2021/07/18 07:28:19;;;;;;;9.43;4.20;;;;;;;;;;4971948;28;20050;-48
2021/07/18 07:30:45;;;;;;;8.27;4.72;;;;;;;;;;4957156;28;20051;-51
2021/07/18 07:33:12;;;;;;;7.15;3.78;;;;;;;;;;4970709;28;20066;-50
2021/07/18 07:35:39;;;;;;;6.68;4.50;;;;;;;;;;4974287;28;20488;-48
2021/07/18 07:38:06;;;;;;;8.15;4.03;;;;;;;;;;4966336;28;20039;-48
2021/07/18 07:40:33;;;;;;;8.27;4.55;;;;;;;;;;4960397;28;20050;-51
2021/07/18 07:43:00;;;;;;;8.27;4.28;;;;;;;;;;4970664;28;20136;-50
2021/07/18 07:45:27;;;;;;;9.35;4.20;;;;;;;;;;4974537;28;20038;-51
2021/07/18 07:47:54;;;;;;;7.82;4.20;;;;;;;;;;4961941;28;20157;-49
2021/07/18 07:50:21;;;;;;;9.98;4.38;;;;;;;;;;4971917;28;20137;-47
2021/07/18 07:52:48;;;;;;;11.95;5.00;;;;;;;;;;4974280;28;20564;-48
2021/07/18 07:55:14;;;;;;;9.13;5.45;;;;;;;;;;4971260;28;20043;-49
2021/07/18 07:57:41;;;;;;;9.32;4.70;;;;;;;;;;4974264;28;20447;-47
2021/07/18 08:00:09;;;;;;;8.15;4.78;;;;;;;;;;4968241;28;20039;-50
2021/07/18 08:02:40;;;;;;;8.95;4.32;;;;;;;;;;4974857;28;20129;-47
2021/07/18 08:05:08;;;;;;;8.68;4.82;;;;;;;;;;4974856;28;20073;-47
2021/07/18 08:07:35;;;;;;;6.70;4.45;;;;;;;;;;4972011;28;20118;-47
2021/07/18 08:10:04;;;;;;;14.60;4.72;;;;;;;;;;4973813;28;20043;-50
2021/07/18 08:12:31;;;;;;;7.60;5.20;;;;;;;;;;4974943;28;20055;-48
2021/07/18 08:14:58;;;;;;;8.02;5.10;;;;;;;;;;4973241;28;20082;-48
2021/07/18 08:17:25;;;;;;;10.60;5.50;;;;;;;;;;4974788;28;20129;-49
2021/07/18 08:19:51;;;;;;;11.60;5.38;;;;;;;;;;4973795;28;20141;-52
2021/07/18 08:22:20;;;;;;;13.55;5.10;;;;;;;;;;4973173;28;20125;-50
2021/07/18 08:24:47;;;;;;;9.75;5.70;;;;;;;;;;4955248;28;20070;-50
2021/07/18 08:27:14;;;;;;;8.18;5.72;;;;;;;;;;4965862;28;20042;-50
2021/07/18 08:29:41;;;;;;;9.85;5.43;;;;;;;;;;4964282;28;20047;-49
2021/07/18 08:32:08;;;;;;;9.35;5.32;;;;;;;;;;4964721;28;20142;-50
2021/07/18 08:34:35;;;;;;;10.93;5.15;;;;;;;;;;4974327;28;20102;-49
2021/07/18 08:37:02;;;;;;;11.15;5.82;;;;;;;;;;4972310;28;20133;-49
2021/07/18 08:39:28;;;;;;;18.75;6.10;;;;;;;;;;4966960;28;20527;-47
2021/07/18 08:41:55;;;;;;;8.55;5.05;;;;;;;;;;4974339;28;20039;-50
2021/07/18 08:44:23;;;;;;;10.88;6.03;;;;;;;;;;4974269;28;20039;-49
2021/07/18 08:46:50;;;;;;;8.85;5.50;;;;;;;;;;4971296;28;20051;-50
2021/07/18 08:49:17;;;;;;;11.38;5.68;;;;;;;;;;4963766;28;20042;-52
2021/07/18 08:51:43;;;;;;;8.10;5.35;;;;;;;;;;4973127;28;20050;-51
2021/07/18 08:54:10;;;;;;;8.32;5.95;;;;;;;;;;4973755;28;20059;-52
2021/07/18 08:56:37;;;;;;;9.02;6.00;;;;;;;;;;4967559;28;20130;-53
2021/07/18 08:59:07;;;;;;;8.80;5.60;;;;;;;;;;4956436;28;20058;-52
2021/07/18 09:01:34;;;;;;;10.80;6.20;;;;;;;;;;4954823;28;20460;-51
2021/07/18 09:04:01;;;;;;;12.93;6.35;;;;;;;;;;4961091;28;20039;-48
2021/07/18 09:06:44;;;;;;;11.20;5.90;;;;;;;;;;4973902;28;20047;-52
2021/07/18 09:09:15;;;;;;;13.75;6.40;;;;;;;;;;4971149;28;20373;-49
2021/07/18 09:11:43;;;;;;;12.27;7.30;;;;;;;;;;4973802;28;20051;-47
2021/07/18 09:14:11;;;;;;;12.93;7.70;;;;;;;;;;4973217;28;20085;-48
2021/07/18 09:16:40;;;;;;;11.70;7.05;;;;;;;;;;4973664;28;20047;-50
2021/07/18 09:19:13;;;;;;;10.13;7.20;;;;;;;;;;4967832;28;20057;-51
2021/07/18 09:21:47;;;;;;;9.82;7.15;;;;;;;;;;4972479;28;20462;-51
2021/07/18 09:24:18;;;;;;;11.45;7.68;;;;;;;;;;4973252;28;20043;-50
2021/07/18 09:27:01;;;;;;;9.63;7.75;;;;;;;;;;4973496;28;20126;-51
2021/07/18 09:29:28;;;;;;;11.30;7.70;;;;;;;;;;4956046;28;20047;-51
2021/07/18 09:32:05;;;;;;;10.27;8.02;;;;;;;;;;4954054;28;20043;-48
2021/07/18 09:34:40;;;;;;;12.35;8.35;;;;;;;;;;4964081;28;20090;-48
2021/07/18 09:37:09;;;;;;;12.75;8.20;;;;;;;;;;4971883;28;20138;-52
2021/07/18 09:39:37;;;;;;;14.15;8.68;;;;;;;;;;4970732;28;20137;-48
2021/07/18 09:42:05;;;;;;;11.80;8.32;;;;;;;;;;4972849;28;20035;-48
2021/07/18 09:44:43;;;;;;;12.27;9.10;;;;;;;;;;4972000;28;20271;-46
2021/07/18 09:47:10;;;;;;;14.65;9.27;;;;;;;;;;4970810;28;20117;-52
2021/07/18 09:49:36;;;;;;;11.88;8.70;;;;;;;;;;4971199;28;20488;-51
2021/07/18 09:52:18;;;;;;;10.68;7.88;;;;;;;;;;4971714;28;20050;-46
2021/07/18 09:54:46;;;;;;;11.88;9.02;;;;;;;;;;4966418;28;20039;-49
2021/07/18 09:57:31;;;;;;;13.77;8.93;;;;;;;;;;4972705;28;20043;-48
2021/07/18 09:59:58;;;;;;;14.50;9.10;;;;;;;;;;4960405;28;20134;-50
2021/07/18 10:02:26;;;;;;;13.38;8.80;;;;;;;;;;4966394;28;20393;-50
2021/07/18 10:04:54;;;;;;;11.75;9.23;;;;;;;;;;4972973;28;20047;-51
2021/07/18 10:07:22;;;;;;;14.75;8.65;;;;;;;;;;4965832;28;20045;-45
2021/07/18 10:09:50;;;;;;;15.55;9.57;;;;;;;;;;4952583;28;20141;-52
2021/07/18 10:12:22;;;;;;;11.80;9.13;;;;;;;;;;4971205;28;20469;-50
2021/07/18 10:14:48;;;;;;;13.25;10.05;;;;;;;;;;4979351;28;20694;-49
2021/07/18 10:17:15;;;;;;;15.48;10.48;;;;;;;;;;4970000;28;20489;-49
2021/07/18 10:19:42;;;;;;;14.00;10.38;;;;;;;;;;4941970;28;20051;-49
2021/07/18 10:22:09;;;;;;;13.45;9.80;;;;;;;;;;4968439;28;20078;-46
2021/07/18 10:24:36;;;;;;;14.60;10.32;;;;;;;;;;4977390;28;20476;-48
2021/07/18 10:27:03;;;;;;;14.55;10.45;;;;;;;;;;4967435;28;20057;-47
2021/07/18 10:29:31;;;;;;;16.08;11.45;;;;;;;;;;4969977;28;20083;-47
2021/07/18 10:32:04;;;;;;;17.75;13.25;;;;;;;;;;4966731;28;20385;-45
2021/07/18 10:34:35;;;;;;;20.40;14.15;;;;;;;;;;4978837;28;20050;-46
2021/07/18 10:37:03;;;;;;;22.38;15.30;;;;;;;;;;4977579;28;20051;-47
2021/07/18 10:39:29;;;;;;;23.65;16.98;;;;;;;;;;4976582;28;20038;-47
2021/07/18 10:41:57;;;;;;;24.80;16.70;;;;;;;;;;4977527;28;20058;-50
2021/07/18 10:44:35;;;;;;;22.55;17.92;;;;;;;;;;4979071;28;20090;-47
2021/07/18 10:47:02;;;;;;;25.48;18.05;;;;;;;;;;4975031;28;20121;-46
2021/07/18 10:49:44;;;;;;;21.92;17.40;;;;;;;;;;4975840;28;20039;-52
2021/07/18 10:52:14;;;;;;;23.95;16.98;;;;;;;;;;4972299;28;20093;-53
2021/07/18 10:54:42;;;;;;;24.00;17.90;;;;;;;;;;4977755;28;20484;-46
2021/07/18 10:57:28;;;;;;;21.88;18.15;;;;;;;;;;4976561;28;20062;-45
2021/07/18 10:59:56;;;;;;;24.42;18.50;;;;;;;;;;4966270;28;20062;-47
2021/07/18 11:02:33;;;;;;;23.17;17.48;;;;;;;;;;4970212;28;20142;-47
2021/07/18 11:05:02;;;;;;;23.52;17.95;;;;;;;;;;4978304;28;20077;-48
2021/07/18 11:07:36;;;;;;;23.63;16.88;;;;;;;;;;4975736;28;20523;-50
2021/07/18 11:10:09;;;;;;;22.55;17.98;;;;;;;;;;4964984;28;20083;-47
2021/07/18 11:12:38;;;;;;;24.98;19.13;;;;;;;;;;4967914;28;20070;-50
2021/07/18 11:15:25;;;;;;;22.67;18.38;;;;;;;;;;4970283;28;20070;-46
2021/07/18 11:18:01;;;;;;;25.30;18.35;;;;;;;;;;4976753;28;20050;-47
2021/07/18 11:20:55;;;;;;;25.83;19.95;;;;;;;;;;4977315;28;20115;-52
2021/07/18 11:23:21;;;;;;;;;;;;;;;;;;4966836;28;20114;-48
2021/07/18 11:25:52;;;;;;;24.05;18.63;;;;;;;;;;4957324;28;19930;-50
2021/07/18 11:28:48;;;;;;;23.63;18.77;;;;;;;;;;4972703;28;20066;-51
2021/07/18 11:31:17;;;;;;;22.73;18.20;;;;;;;;;;4970043;28;20568;-48
2021/07/18 11:33:44;;;;;;;27.42;20.02;;;;;;;;;;4966428;28;20457;-48
2021/07/18 11:36:11;;;;;;;26.25;21.30;;;;;;;;;;4971824;28;20047;-47
2021/07/18 11:38:37;;;;;;;26.63;19.20;;;;;;;;;;4957079;28;20141;-49
2021/07/18 11:41:20;;;;;;;22.60;18.42;;;;;;;;;;4973940;28;20125;-51
2021/07/18 11:43:47;;;;;;;21.02;16.73;;;;;;;;;;4960322;28;20050;-49
2021/07/18 11:46:15;;;;;;;21.58;17.30;;;;;;;;;;4962622;28;20046;-50
2021/07/18 11:48:42;;;;;;;23.67;18.40;;;;;;;;;;4971830;28;20524;-48
2021/07/18 11:51:19;;;;;;;22.58;17.95;;;;;;;;;;4973683;28;20043;-46
2021/07/18 11:53:50;;;;;;;21.67;17.30;;;;;;;;;;4968394;28;20102;-49
2021/07/18 11:56:30;;;;;;;26.42;18.73;;;;;;;;;;4966149;28;20053;-47
2021/07/18 11:59:08;;;;;;;22.23;18.13;;;;;;;;;;4977096;23;20214;-51
2021/07/18 12:01:36;;;;;;;23.33;17.73;;;;;;;;;;4952900;28;20039;-49
2021/07/18 12:04:04;;;;;;;21.10;18.00;;;;;;;;;;4954702;28;20127;-49
2021/07/18 12:06:31;;;;;;;21.33;15.30;;;;;;;;;;4953205;28;20118;-49
2021/07/18 12:09:10;;;;;;;20.70;17.50;;;;;;;;;;4939125;28;20134;-47
2021/07/18 12:11:39;;;;;;;21.20;17.00;;;;;;;;;;4952597;28;20044;-47
2021/07/18 12:14:06;;;;;;;23.45;17.05;;;;;;;;;;4948962;29;20054;-50
2021/07/18 12:16:33;;;;;;;22.80;16.90;;;;;;;;;;4944907;28;20073;-49
2021/07/18 12:19:00;;;;;;;21.55;17.33;;;;;;;;;;4946419;28;20047;-48
2021/07/18 12:21:31;;;;;;;20.95;16.15;;;;;;;;;;4953713;28;20333;-46
2021/07/18 12:24:12;;;;;;;21.67;16.52;;;;;;;;;;4944807;28;20130;-47
2021/07/18 12:26:40;;;;;;;18.83;16.08;;;;;;;;;;4945994;28;20235;-47
2021/07/18 12:29:08;;;;;;;21.45;17.02;;;;;;;;;;4948228;28;20078;-51
2021/07/18 12:31:36;;;;;;;17.73;14.57;;;;;;;;;;4952704;28;20564;-49
2021/07/18 12:34:03;;;;;;;19.08;14.98;;;;;;;;;;4952111;28;20127;-49
2021/07/18 12:36:30;;;;;;;18.20;14.52;;;;;;;;;;4953466;28;20049;-50
2021/07/18 12:39:16;;;;;;;17.60;14.88;;;;;;;;;;4952898;28;20047;-50
2021/07/18 12:41:43;;;;;;;17.90;16.00;;;;;;;;;;4942865;28;20142;-50
2021/07/18 12:44:11;;;;;;;18.40;15.05;;;;;;;;;;4946212;28;20048;-48
2021/07/18 12:46:37;;;;;;;21.92;15.80;;;;;;;;;;4949232;29;20146;-47
2021/07/18 12:49:05;;;;;;;20.63;14.95;;;;;;;;;;4953836;28;20051;-52
2021/07/18 12:51:32;;;;;;;17.00;15.13;;;;;;;;;;4939955;28;20040;-51
2021/07/18 12:53:59;;;;;;;17.40;14.38;;;;;;;;;;4934914;29;20039;-50
2021/07/18 12:56:26;;;;;;;16.90;15.10;;;;;;;;;;4943821;29;20110;-48
2021/07/18 12:58:52;;;;;;;20.10;16.67;;;;;;;;;;4934883;29;20086;-52
2021/07/18 13:01:26;;;;;;;18.65;15.82;;;;;;;;;;4935787;29;20043;-48
2021/07/18 13:04:06;;;;;;;18.70;14.50;;;;;;;;;;4935562;29;20046;-50
2021/07/18 13:06:44;;;;;;;16.70;14.13;;;;;;;;;;4949444;29;20047;-50
2021/07/18 13:09:18;;;;;;;17.48;14.27;;;;;;;;;;4935268;28;20052;-55
2021/07/18 13:11:48;;;;;;;17.83;13.25;;;;;;;;;;4935685;29;20055;-49
2021/07/18 13:14:18;;;;;;;18.42;13.55;;;;;;;;;;4935144;29;20051;-53
2021/07/18 13:16:46;;;;;;;17.42;14.18;;;;;;;;;;4942702;29;20044;-53
2021/07/18 13:19:15;;;;;;;17.30;13.63;;;;;;;;;;4934279;29;20040;-53
2021/07/18 13:21:41;;;;;;;17.83;15.07;;;;;;;;;;4948688;29;20146;-51
2021/07/18 13:24:08;;;;;;;17.98;15.23;;;;;;;;;;4938829;28;20131;-50
2021/07/18 13:26:39;;;;;;;16.85;13.02;;;;;;;;;;4946678;29;20134;-50
2021/07/18 13:29:12;;;;;;;14.07;12.57;;;;;;;;;;4948518;28;20039;-54
2021/07/18 13:31:39;;;;;;;13.80;12.38;;;;;;;;;;4935170;29;20043;-53
2021/07/18 13:34:06;;;;;;;14.50;12.45;;;;;;;;;;4933426;29;20043;-50
2021/07/18 13:36:33;;;;;;;17.48;12.25;;;;;;;;;;4950193;29;20047;-48
2021/07/18 13:39:14;;;;;;;16.90;14.13;;;;;;;;;;4945391;28;20497;-50
2021/07/18 13:41:41;;;;;;;13.57;12.18;;;;;;;;;;4935985;29;20127;-52
2021/07/18 13:44:09;;;;;;;13.85;11.35;;;;;;;;;;4953553;28;20054;-51
2021/07/18 13:46:35;;;;;;;12.43;11.10;;;;;;;;;;4937523;28;20515;-52
2021/07/18 13:49:03;;;;;;;15.18;10.80;;;;;;;;;;4932717;29;20074;-53
2021/07/18 13:51:30;;;;;;;12.70;11.13;;;;;;;;;;4934778;29;20040;-50
2021/07/18 13:53:58;;;;;;;14.57;10.98;;;;;;;;;;4933287;29;20051;-50
2021/07/18 13:56:25;;;;;;;11.60;10.15;;;;;;;;;;4948795;29;20091;-53
2021/07/18 13:58:53;;;;;;;14.60;10.20;;;;;;;;;;4933221;29;20146;-48
2021/07/18 14:01:20;;;;;;;11.77;9.75;;;;;;;;;;4934700;29;20047;-51
2021/07/18 14:03:47;;;;;;;12.35;11.05;;;;;;;;;;4934232;29;20040;-52
2021/07/18 14:06:14;;;;;;;12.77;10.15;;;;;;;;;;4946114;29;20059;-50
2021/07/18 14:08:41;;;;;;;12.38;10.68;;;;;;;;;;4935212;28;20394;-48
2021/07/18 14:11:08;;;;;;;11.20;9.02;;;;;;;;;;4934276;29;20066;-50
2021/07/18 14:13:35;;;;;;;12.05;9.18;;;;;;;;;;4934275;29;20066;-48
2021/07/18 14:16:02;;;;;;;9.88;8.55;;;;;;;;;;4934006;29;20441;-51
2021/07/18 14:18:29;;;;;;;10.10;9.02;;;;;;;;;;4932516;29;20048;-49
2021/07/18 14:20:57;;;;;;;11.52;9.23;;;;;;;;;;4943198;29;20489;-50
2021/07/18 14:23:24;;;;;;;10.60;7.55;;;;;;;;;;4946042;28;20126;-50
2021/07/18 14:25:51;;;;;;;10.07;8.60;;;;;;;;;;4933889;29;20417;-49
2021/07/18 14:28:17;;;;;;;10.55;9.13;;;;;;;;;;4933632;29;20528;-48
2021/07/18 14:30:44;;;;;;;9.20;8.25;;;;;;;;;;4933660;29;20143;-51
2021/07/18 14:33:13;;;;;;;10.48;8.70;;;;;;;;;;4934293;29;20083;-49
2021/07/18 14:35:40;;;;;;;10.80;9.75;;;;;;;;;;4934389;29;20071;-48